Time;durP1;ratioP1;P1;durP2;ratioP2;P2;SDS_P1;SDS_P2;PMS_P1;PMS_P2;Temp;Humidity;BMP_temperature;BMP_pressure;BME280_temperature;BME280_humidity;BME280_pressure;Samples;Min_cycle;Max_cycle;Signal;HPM_P1;HPM_P2
2023/11/16 00:00:42;;;;;;;0.50;0.40;;;;;;;8.57;85.82;97937.22;6219343;28;20642;-53
2023/11/16 00:03:44;;;;;;;0.50;0.40;;;;;;;8.47;86.96;97947.53;6218212;28;20225;-51
2023/11/16 00:06:47;;;;;;;2.07;0.50;;;;;;;8.51;87.40;97952.16;6216865;28;20205;-52
2023/11/16 00:09:49;;;;;;;0.30;0.30;;;;;;;8.47;86.90;97948.34;6218907;28;20196;-54
2023/11/16 00:12:54;;;;;;;1.47;0.57;;;;;;;8.46;86.37;97964.50;6213219;28;20206;-52
2023/11/16 00:15:56;;;;;;;1.23;0.40;;;;;;;8.41;85.55;97957.19;6216607;28;20205;-54
2023/11/16 00:19:00;;;;;;;1.20;0.67;;;;;;;8.42;85.82;97958.00;6217623;28;20213;-49
2023/11/16 00:22:03;;;;;;;1.00;0.50;;;;;;;8.75;82.45;97966.41;6219067;28;20197;-53
2023/11/16 00:25:06;;;;;;;2.33;0.50;;;;;;;8.90;81.31;97955.38;6217664;28;20196;-50
2023/11/16 00:28:08;;;;;;;0.63;0.60;;;;;;;8.81;81.48;97958.56;6217872;28;20200;-52
2023/11/16 00:31:10;;;;;;;2.57;0.80;;;;;;;8.89;80.40;97961.75;6218061;28;20257;-54
2023/11/16 00:34:12;;;;;;;1.10;0.60;;;;;;;8.73;81.71;97947.22;6218135;28;20270;-51
2023/11/16 00:37:14;;;;;;;3.73;0.83;;;;;;;8.61;82.21;97956.97;6216954;28;20680;-50
2023/11/16 00:40:17;;;;;;;1.80;0.50;;;;;;;8.52;83.41;97960.94;6197795;28;20225;-52
2023/11/16 00:43:19;;;;;;;0.83;0.70;;;;;;;8.50;84.77;97974.44;6200672;28;20220;-51
2023/11/16 00:46:22;;;;;;;1.43;1.00;;;;;;;8.39;86.24;97967.22;6218522;28;20197;-54
2023/11/16 00:49:24;;;;;;;1.57;0.93;;;;;;;8.39;87.60;97974.38;6217406;28;20197;-51
2023/11/16 00:52:27;;;;;;;1.07;0.83;;;;;;;8.44;85.57;97974.53;6200354;28;20212;-53
2023/11/16 00:55:31;;;;;;;1.20;0.80;;;;;;;8.45;85.66;97978.81;6215499;28;20581;-50
2023/11/16 00:58:34;;;;;;;1.23;0.70;;;;;;;8.39;85.48;97961.91;6202558;28;20209;-52
2023/11/16 01:01:37;;;;;;;2.50;0.87;;;;;;;8.32;85.68;97971.75;6214564;28;20212;-51
2023/11/16 01:04:41;;;;;;;1.23;0.80;;;;;;;8.37;85.32;97977.22;6217554;28;20333;-53
2023/11/16 01:07:44;;;;;;;1.97;0.70;;;;;;;8.27;83.80;97955.66;6200822;28;20251;-52
2023/11/16 01:10:49;;;;;;;2.13;0.77;;;;;;;8.40;85.93;97981.31;6215897;28;20209;-51
2023/11/16 01:13:55;;;;;;;2.30;0.70;;;;;;;8.25;85.49;97963.84;6219283;28;20185;-52
2023/11/16 01:17:04;;;;;;;2.10;0.70;;;;;;;8.00;86.74;97925.94;6219013;28;20190;-52
2023/11/16 01:20:18;;;;;;;1.70;0.77;;;;;;;8.24;87.40;97967.53;6218452;28;20201;-53
2023/11/16 01:23:21;;;;;;;1.67;0.90;;;;;;;8.11;87.66;97937.66;6217809;28;20205;-53
2023/11/16 01:26:25;;;;;;;1.70;0.67;;;;;;;8.24;88.21;97970.19;6191886;28;20204;-52
2023/11/16 01:29:28;;;;;;;0.73;0.70;;;;;;;8.08;88.86;97954.03;6198744;28;20736;-52
2023/11/16 01:32:30;;;;;;;2.80;1.10;;;;;;;8.62;83.96;97977.19;6201435;28;20671;-53
2023/11/16 01:35:33;;;;;;;5.93;1.20;;;;;;;8.59;84.24;97974.16;6200137;28;20275;-50
2023/11/16 01:38:38;;;;;;;1.30;0.90;;;;;;;8.54;83.53;97974.81;6218122;28;20213;-53
2023/11/16 01:41:44;;;;;;;3.13;0.93;;;;;;;8.38;85.01;97986.03;6219097;28;20189;-54
2023/11/16 01:44:47;;;;;;;4.50;0.90;;;;;;;8.37;85.41;97973.78;6217904;28;20650;-54
2023/11/16 01:47:54;;;;;;;3.13;1.10;;;;;;;8.35;85.08;97984.59;6219605;28;20557;-53
2023/11/16 01:51:05;;;;;;;4.73;0.83;;;;;;;8.00;88.21;97963.09;6200693;28;20290;-52
2023/11/16 01:54:08;;;;;;;3.23;1.13;;;;;;;8.02;88.78;97979.59;6217579;28;20709;-54
2023/11/16 01:57:11;;;;;;;2.87;1.20;;;;;;;8.06;88.44;97966.69;6200381;28;20201;-54
2023/11/16 02:00:15;;;;;;;3.80;1.30;;;;;;;8.04;88.97;97969.59;6197828;28;20220;-50
2023/11/16 02:03:17;;;;;;;1.40;0.80;;;;;;;7.87;90.95;97982.56;6215340;28;20213;-52
2023/11/16 02:06:19;;;;;;;1.73;1.17;;;;;;;7.83;90.88;97973.44;6216297;28;20702;-54
2023/11/16 02:09:22;;;;;;;3.77;1.10;;;;;;;7.74;92.15;97983.50;6217813;28;20185;-51
2023/11/16 02:12:26;;;;;;;2.43;1.00;;;;;;;7.75;91.51;97981.66;6217886;28;20204;-53
2023/11/16 02:15:32;;;;;;;2.70;1.00;;;;;;;7.71;91.63;97975.16;6200479;28;20205;-51
2023/11/16 02:18:35;;;;;;;2.57;1.10;;;;;;;7.69;92.29;97979.88;6217896;28;20204;-52
2023/11/16 02:21:41;;;;;;;2.43;1.10;;;;;;;7.56;94.26;97980.78;6217917;28;20205;-54
2023/11/16 02:24:47;;;;;;;1.37;0.90;;;;;;;7.44;94.65;97985.97;6216845;28;20204;-52
2023/11/16 02:27:49;;;;;;;4.47;1.30;;;;;;;7.54;94.21;97982.84;6198736;28;20204;-53
2023/11/16 02:30:52;;;;;;;1.10;0.77;;;;;;;7.57;93.51;97979.75;6210180;28;20229;-53
2023/11/16 02:33:54;;;;;;;1.37;1.27;;;;;;;7.46;93.80;97978.59;6174837;28;20577;-51
2023/11/16 02:36:56;;;;;;;3.37;0.80;;;;;;;7.39;95.55;97990.25;6192555;28;20198;-51
2023/11/16 02:39:59;;;;;;;2.30;1.00;;;;;;;7.31;95.83;97983.38;6192518;28;20209;-51
2023/11/16 02:43:04;;;;;;;2.17;0.90;;;;;;;7.10;96.60;97957.22;6170915;28;20208;-53
2023/11/16 02:46:06;;;;;;;1.87;1.20;;;;;;;7.50;93.73;97985.09;6165262;28;20199;-52
2023/11/16 02:49:08;;;;;;;3.20;1.00;;;;;;;7.45;95.26;97986.78;6194820;28;20208;-50
2023/11/16 02:52:10;;;;;;;1.17;0.60;;;;;;;7.33;96.06;97983.16;6192509;28;20571;-50
2023/11/16 02:55:14;;;;;;;2.30;1.00;;;;;;;7.16;97.78;97982.88;6197226;28;20201;-52
2023/11/16 02:58:16;;;;;;;1.80;0.90;;;;;;;7.09;97.05;97976.78;6186182;28;20224;-52
2023/11/16 03:01:18;;;;;;;3.70;0.80;;;;;;;7.40;93.56;97976.81;6196169;28;20211;-51
2023/11/16 03:04:20;;;;;;;1.37;0.77;;;;;;;7.34;94.70;97975.03;6197995;28;20203;-51
2023/11/16 03:07:22;;;;;;;1.73;0.80;;;;;;;7.38;94.90;97980.69;6179079;28;20197;-51
2023/11/16 03:10:34;;;;;;;1.13;0.80;;;;;;;7.40;93.66;97970.69;6196402;28;20658;-51
2023/11/16 03:13:37;;;;;;;2.53;0.80;;;;;;;7.53;93.88;97969.78;6194810;28;20664;-54
2023/11/16 03:16:46;;;;;;;1.40;0.90;;;;;;;7.54;91.17;97947.53;6160450;28;20285;-53
2023/11/16 03:19:48;;;;;;;1.70;0.60;;;;;;;7.74;92.35;97980.03;6194426;28;20236;-51
2023/11/16 03:22:50;;;;;;;4.67;0.77;;;;;;;7.63;92.51;97976.22;6196148;28;20197;-50
2023/11/16 03:25:54;;;;;;;2.37;0.90;;;;;;;7.48;93.70;97981.84;6178311;28;20197;-51
2023/11/16 03:28:57;;;;;;;1.90;0.83;;;;;;;7.43;94.20;97988.81;6197308;28;20658;-51
2023/11/16 03:31:59;;;;;;;4.03;1.07;;;;;;;7.34;94.95;97990.91;6207531;28;20734;-52
2023/11/16 03:35:03;;;;;;;4.57;0.80;;;;;;;7.16;95.28;97966.97;6218939;28;20684;-53
2023/11/16 03:38:05;;;;;;;4.17;0.80;;;;;;;7.33;94.43;97988.47;6220384;28;20193;-52
2023/11/16 03:41:07;;;;;;;1.60;0.50;;;;;;;7.28;94.71;97978.50;6220520;28;20239;-53
2023/11/16 03:44:09;;;;;;;2.10;0.80;;;;;;;7.11;95.41;97962.31;6220357;28;20215;-51
2023/11/16 03:47:12;;;;;;;1.10;0.47;;;;;;;7.20;95.38;97989.38;6219742;28;20200;-53
2023/11/16 03:50:14;;;;;;;1.40;0.63;;;;;;;7.11;96.26;97988.00;6220223;28;20189;-51
2023/11/16 03:53:16;;;;;;;6.43;0.80;;;;;;;7.05;96.97;97994.94;6217928;28;20899;-51
2023/11/16 03:56:18;;;;;;;1.63;0.53;;;;;;;7.00;97.04;97980.72;6221362;28;20657;-53
2023/11/16 03:59:24;;;;;;;0.93;0.50;;;;;;;6.88;97.48;97988.50;6218760;28;20614;-48
2023/11/16 04:02:26;;;;;;;3.10;0.70;;;;;;;6.80;97.87;97997.50;6233204;28;20764;-50
2023/11/16 04:05:31;;;;;;;2.23;0.70;;;;;;;6.72;96.60;97984.50;6218891;28;20193;-52
2023/11/16 04:08:33;;;;;;;0.73;0.50;;;;;;;6.65;97.98;97989.81;6218468;28;20588;-52
2023/11/16 04:11:43;;;;;;;2.37;0.57;;;;;;;6.52;98.56;97975.81;6218218;28;20212;-50
2023/11/16 04:14:45;;;;;;;3.03;0.73;;;;;;;6.40;98.77;97989.69;6220345;28;20197;-53
2023/11/16 04:17:47;;;;;;;2.90;0.70;;;;;;;6.34;98.96;97987.84;6232774;28;20559;-52
2023/11/16 04:20:50;;;;;;;3.23;0.73;;;;;;;6.26;99.77;97989.91;6218971;28;20254;-53
2023/11/16 04:23:56;;;;;;;1.80;0.57;;;;;;;6.53;94.74;97980.88;6217654;28;20212;-53
2023/11/16 04:26:58;;;;;;;1.87;0.60;;;;;;;6.71;94.67;97981.03;6219260;28;20228;-53
2023/11/16 04:30:00;;;;;;;1.53;0.53;;;;;;;6.48;96.45;97983.34;6216877;28;20984;-49
2023/11/16 04:33:03;;;;;;;1.40;0.70;;;;;;;6.15;97.58;97984.22;6220772;28;20780;-51
2023/11/16 04:36:08;;;;;;;1.00;0.70;;;;;;;5.78;98.65;97953.13;6218996;28;20240;-52
2023/11/16 04:39:11;;;;;;;0.70;0.53;;;;;;;5.78;99.78;97983.00;6217643;28;20213;-53
2023/11/16 04:42:14;;;;;;;0.90;0.40;;;;;;;5.69;100.00;97990.31;6214096;28;20570;-50
2023/11/16 04:45:18;;;;;;;1.27;0.70;;;;;;;5.43;100.00;97975.25;6218398;28;20219;-51
2023/11/16 04:48:20;;;;;;;2.80;0.53;;;;;;;5.43;100.00;97990.31;6218682;28;20634;-53
2023/11/16 04:51:24;;;;;;;2.87;0.70;;;;;;;5.35;100.00;97996.56;6218536;28;20196;-54
2023/11/16 04:54:28;;;;;;;3.43;0.70;;;;;;;5.25;100.00;97984.78;6217556;28;20197;-50
2023/11/16 04:57:30;;;;;;;1.73;0.60;;;;;;;5.05;100.00;97953.03;6218679;28;20235;-51
2023/11/16 05:00:33;;;;;;;1.63;0.70;;;;;;;5.20;100.00;97985.38;6218031;28;20247;-50
2023/11/16 05:03:36;;;;;;;3.10;0.70;;;;;;;5.08;100.00;97979.06;6218456;28;20205;-51
2023/11/16 05:06:41;;;;;;;3.70;0.50;;;;;;;5.22;100.00;97990.44;6220255;28;20203;-51
2023/11/16 05:09:43;;;;;;;2.50;0.70;;;;;;;5.21;100.00;97987.00;6218154;28;20711;-52
2023/11/16 05:12:48;;;;;;;1.97;0.80;;;;;;;5.04;100.00;97973.34;6212889;28;20670;-50
2023/11/16 05:15:50;;;;;;;3.07;1.00;;;;;;;5.08;100.00;97985.16;6217054;28;20235;-48
2023/11/16 05:18:53;;;;;;;2.33;0.60;;;;;;;5.14;100.00;98002.81;6217453;28;20205;-50
2023/11/16 05:21:55;;;;;;;2.53;0.60;;;;;;;5.13;100.00;97998.56;6217783;28;20682;-47
2023/11/16 05:24:57;;;;;;;0.77;0.50;;;;;;;5.14;100.00;97984.34;6215493;28;20222;-54
2023/11/16 05:28:00;;;;;;;0.83;0.60;;;;;;;5.16;100.00;97984.94;6225962;28;20573;-50
2023/11/16 05:31:04;;;;;;;1.53;0.50;;;;;;;5.13;100.00;97989.84;6207466;28;20319;-53
2023/11/16 05:34:07;;;;;;;0.40;0.40;;;;;;;5.61;100.00;97992.34;6168655;28;20236;-53
2023/11/16 05:37:12;;;;;;;1.53;0.50;;;;;;;6.33;97.38;98001.28;6198750;28;20210;-54
2023/11/16 05:40:14;;;;;;;3.30;0.77;;;;;;;6.81;93.38;97995.66;6198114;28;20580;-54
2023/11/16 05:43:16;;;;;;;3.50;0.83;;;;;;;6.77;93.91;98000.56;6195681;28;20204;-54
2023/11/16 05:46:18;;;;;;;0.53;0.47;;;;;;;6.59;95.18;98001.22;6188513;28;20343;-51
2023/11/16 05:49:20;;;;;;;1.43;0.43;;;;;;;6.39;97.00;98006.56;6177310;28;20208;-53
2023/11/16 05:52:23;;;;;;;2.23;0.60;;;;;;;6.22;97.50;98015.97;6192551;28;20201;-53
2023/11/16 05:55:26;;;;;;;1.23;0.50;;;;;;;5.93;98.83;97983.63;6193559;28;20207;-53
2023/11/16 05:58:28;;;;;;;2.50;0.60;;;;;;;5.94;99.94;97998.47;6197550;28;20573;-53
2023/11/16 06:01:30;;;;;;;3.07;0.57;;;;;;;5.91;100.00;98008.59;6176256;28;20220;-53
2023/11/16 06:04:33;;;;;;;1.97;0.73;;;;;;;5.95;100.00;98001.94;6192969;28;20249;-54
2023/11/16 06:07:36;;;;;;;1.37;0.50;;;;;;;6.15;98.68;97992.16;6190773;28;20199;-51
2023/11/16 06:10:39;;;;;;;2.57;1.10;;;;;;;6.45;96.27;98000.47;6193037;28;20193;-50
2023/11/16 06:13:41;;;;;;;2.43;1.00;;;;;;;6.66;94.82;97998.56;6193689;28;20202;-51
2023/11/16 06:16:44;;;;;;;1.43;0.50;;;;;;;7.25;89.90;98000.16;6194336;28;20582;-52
2023/11/16 06:19:46;;;;;;;1.43;0.50;;;;;;;7.63;86.68;98007.22;6189136;28;20218;-54
2023/11/16 06:22:50;;;;;;;1.87;0.70;;;;;;;7.81;85.37;98006.50;6177965;28;20193;-54
2023/11/16 06:25:53;;;;;;;1.17;0.63;;;;;;;7.83;84.77;97992.00;6192987;28;20209;-54
2023/11/16 06:28:55;;;;;;;2.23;0.70;;;;;;;7.66;86.36;97994.38;6202196;28;20687;-54
2023/11/16 06:31:57;;;;;;;0.50;0.30;;;;;;;7.63;86.78;97986.03;6193682;28;20315;-52
2023/11/16 06:35:00;;;;;;;2.63;0.50;;;;;;;7.60;85.97;97983.81;6195761;28;20572;-54
2023/11/16 06:38:03;;;;;;;1.47;0.70;;;;;;;7.56;86.89;97987.91;6196719;28;20539;-52
2023/11/16 06:41:05;;;;;;;0.97;0.50;;;;;;;7.45;86.61;97992.06;6200101;28;20213;-53
2023/11/16 06:44:08;;;;;;;2.90;0.63;;;;;;;7.45;86.49;97992.06;6202449;28;20197;-54
2023/11/16 06:47:11;;;;;;;1.03;0.50;;;;;;;7.20;89.94;97981.44;6206256;28;20212;-53
2023/11/16 06:50:14;;;;;;;2.47;0.50;;;;;;;7.06;90.20;97993.13;6191818;28;20196;-54
2023/11/16 06:53:16;;;;;;;1.30;0.70;;;;;;;6.93;91.25;97988.69;6211203;28;20214;-54
2023/11/16 06:56:18;;;;;;;2.80;0.60;;;;;;;6.79;93.23;97987.91;6212405;28;20282;-53
2023/11/16 06:59:24;;;;;;;2.37;0.50;;;;;;;6.89;93.17;97982.16;6192157;28;20206;-54
2023/11/16 07:02:27;;;;;;;1.60;0.60;;;;;;;6.82;91.99;97978.75;6177141;28;20613;-53
2023/11/16 07:05:29;;;;;;;1.27;0.50;;;;;;;6.85;93.30;97987.09;6184450;28;20194;-52
2023/11/16 07:08:34;;;;;;;1.53;0.40;;;;;;;6.73;94.02;97957.78;6188739;28;20658;-54
2023/11/16 07:11:38;;;;;;;3.70;0.70;;;;;;;6.93;93.80;97978.88;6190127;28;20224;-53
2023/11/16 07:14:40;;;;;;;3.70;0.73;;;;;;;6.90;93.84;97976.69;6199503;28;20212;-52
2023/11/16 07:17:54;;;;;;;1.23;0.40;;;;;;;7.12;91.13;97955.16;6200174;28;20613;-54
2023/11/16 07:21:04;;;;;;;1.33;0.60;;;;;;;6.94;92.13;97942.63;6199040;28;20771;-54
2023/11/16 07:24:07;;;;;;;1.13;0.43;;;;;;;7.09;93.85;97972.28;6201833;28;20244;-53
2023/11/16 07:27:10;;;;;;;1.07;0.43;;;;;;;6.97;89.82;97886.59;6200118;28;20669;-53
2023/11/16 07:30:12;;;;;;;2.40;0.50;;;;;;;7.73;88.27;97975.75;6194799;28;20225;-52
2023/11/16 07:33:15;;;;;;;3.80;0.70;;;;;;;7.98;84.80;97965.97;6196651;28;20205;-55
2023/11/16 07:36:31;;;;;;;1.00;0.50;;;;;;;7.93;85.78;97976.41;6195679;28;20193;-52
2023/11/16 07:39:34;;;;;;;1.87;0.83;;;;;;;8.12;84.00;97979.09;6194037;28;20713;-53
2023/11/16 07:42:42;;;;;;;1.63;0.70;;;;;;;7.92;86.43;97980.06;6178696;28;20221;-55
2023/11/16 07:45:44;;;;;;;1.93;0.40;;;;;;;7.76;87.70;97977.97;6197842;28;20186;-54
2023/11/16 07:48:46;;;;;;;0.40;0.30;;;;;;;7.61;89.28;97977.47;6195457;28;20197;-52
2023/11/16 07:51:50;;;;;;;2.60;0.50;;;;;;;7.45;90.56;97974.31;6194220;28;20200;-54
2023/11/16 07:54:54;;;;;;;1.47;0.60;;;;;;;7.24;91.27;97959.59;6195382;28;20201;-53
2023/11/16 07:57:57;;;;;;;1.83;0.60;;;;;;;7.19;92.43;97972.66;6195233;28;20576;-49
2023/11/16 08:01:11;;;;;;;1.73;0.50;;;;;;;6.95;94.50;97952.22;6194055;28;20205;-52
2023/11/16 08:04:13;;;;;;;1.47;0.40;;;;;;;6.82;94.97;97954.91;6195132;28;20690;-52
2023/11/16 08:07:18;;;;;;;0.97;0.40;;;;;;;6.72;96.51;97950.06;6194860;28;20194;-53
2023/11/16 08:10:27;;;;;;;1.07;0.43;;;;;;;6.92;96.92;97977.28;6197219;28;20237;-48
2023/11/16 08:13:29;;;;;;;1.63;0.70;;;;;;;6.77;97.26;97949.44;6193730;28;20681;-54
2023/11/16 08:16:31;;;;;;;3.70;0.50;;;;;;;6.93;97.99;97978.09;6195511;28;20589;-53
2023/11/16 08:19:33;;;;;;;0.70;0.40;;;;;;;6.64;98.86;97935.22;6194353;28;20199;-54
2023/11/16 08:22:37;;;;;;;3.10;0.70;;;;;;;7.11;98.96;97980.03;6194617;28;20204;-53
2023/11/16 08:25:39;;;;;;;3.03;0.87;;;;;;;7.37;98.20;97989.66;6194646;28;20199;-53
2023/11/16 08:28:44;;;;;;;3.20;0.50;;;;;;;7.82;92.83;97985.06;6194546;28;20251;-54
2023/11/16 08:31:52;;;;;;;2.37;0.70;;;;;;;8.70;80.83;97981.38;6209098;28;20270;-54
2023/11/16 08:34:55;;;;;;;2.60;0.70;;;;;;;8.70;81.61;97963.59;6217985;28;20193;-52
2023/11/16 08:37:57;;;;;;;3.50;0.77;;;;;;;8.92;82.24;97984.41;6219211;28;20599;-55
2023/11/16 08:41:00;;;;;;;2.40;0.70;;;;;;;8.96;83.12;97980.25;6216632;28;20682;-52
2023/11/16 08:44:03;;;;;;;2.43;0.83;;;;;;;9.10;78.26;97976.38;6218833;28;20209;-51
2023/11/16 08:47:14;;;;;;;3.43;0.70;;;;;;;9.36;76.98;97953.97;6215603;28;20243;-54
2023/11/16 08:50:17;;;;;;;2.80;0.80;;;;;;;10.07;71.62;97960.19;6217972;28;20204;-52
2023/11/16 08:53:21;;;;;;;1.40;0.57;;;;;;;10.12;72.03;97954.97;6218735;28;20193;-51
2023/11/16 08:56:24;;;;;;;1.17;0.67;;;;;;;10.04;71.55;97940.16;6219717;28;20281;-53
2023/11/16 08:59:58;;;;;;;2.50;0.93;;;;;;;10.28;69.60;97940.16;6216774;28;20188;-50
2023/11/16 09:03:07;;;;;;;2.40;0.70;;;;;;;10.39;69.28;97952.66;6218008;28;20205;-50
2023/11/16 09:06:15;;;;;;;2.83;0.67;;;;;;;10.18;69.68;97926.59;6219800;28;20230;-53
2023/11/16 09:09:35;;;;;;;2.73;0.60;;;;;;;10.22;72.43;97941.88;6218291;28;20653;-52
2023/11/16 09:12:41;;;;;;;1.23;0.57;;;;;;;10.26;69.86;97945.75;6215035;28;20210;-50
2023/11/16 09:15:43;;;;;;;2.20;0.70;;;;;;;10.21;72.04;97940.28;6217144;28;20199;-53
2023/11/16 09:18:45;;;;;;;2.00;0.83;;;;;;;10.20;72.55;97938.66;6217076;28;20205;-53
2023/11/16 09:21:48;;;;;;;0.57;0.50;;;;;;;10.22;69.97;97936.56;6217811;28;20219;-52
2023/11/16 09:24:50;;;;;;;3.40;0.80;;;;;;;10.18;73.17;97938.06;6210476;28;20195;-51
2023/11/16 09:27:54;;;;;;;2.33;0.70;;;;;;;10.12;70.73;97935.53;6214207;28;20226;-53
2023/11/16 09:30:57;;;;;;;4.13;0.83;;;;;;;10.06;72.16;97926.63;6217456;28;20227;-51
2023/11/16 09:34:00;;;;;;;1.57;0.57;;;;;;;10.00;70.86;97927.53;6217676;28;20200;-51
2023/11/16 09:37:03;;;;;;;0.97;0.57;;;;;;;10.00;71.71;97925.72;6217621;28;20212;-51
2023/11/16 09:40:08;;;;;;;2.43;0.80;;;;;;;10.04;72.63;97928.69;6219067;28;20579;-50
2023/11/16 09:43:17;;;;;;;3.37;1.00;;;;;;;10.06;73.09;97922.13;6217590;28;20208;-53
2023/11/16 09:46:25;;;;;;;1.60;0.83;;;;;;;10.01;73.84;97903.38;6217840;28;20196;-51
2023/11/16 09:49:30;;;;;;;0.70;0.40;;;;;;;10.15;71.40;97925.25;6216445;28;20229;-51
2023/11/16 09:52:38;;;;;;;1.63;1.10;;;;;;;10.20;69.68;97893.41;6216964;28;20283;-52
2023/11/16 09:55:44;;;;;;;2.50;0.50;;;;;;;10.37;68.02;97903.34;6216772;28;20199;-52
2023/11/16 09:58:47;;;;;;;2.23;0.50;;;;;;;10.45;70.79;97911.00;6217394;28;20330;-51
2023/11/16 10:01:59;;;;;;;1.63;0.60;;;;;;;10.55;68.59;97908.53;6217658;28;20291;-50
2023/11/16 10:05:01;;;;;;;3.47;0.90;;;;;;;10.65;66.26;97891.94;6220843;28;20199;-50
2023/11/16 10:08:08;;;;;;;2.17;1.00;;;;;;;10.56;65.59;97863.00;6222360;28;20197;-53
2023/11/16 10:11:11;;;;;;;0.50;0.50;;;;;;;10.75;65.59;97895.59;6217957;28;20271;-53
2023/11/16 10:14:13;;;;;;;1.07;0.50;;;;;;;10.84;67.39;97883.53;6221605;28;20338;-53
2023/11/16 10:17:15;;;;;;;1.27;0.80;;;;;;;10.87;65.57;97868.91;6222694;28;20711;-48
2023/11/16 10:20:20;;;;;;;1.33;0.80;;;;;;;10.93;65.66;97861.78;6220522;28;20238;-51
2023/11/16 10:23:24;;;;;;;2.53;0.77;;;;;;;10.89;63.86;97856.16;6220541;28;20215;-48
2023/11/16 10:26:27;;;;;;;1.93;0.60;;;;;;;10.85;62.94;97845.16;6221554;28;20740;-53
2023/11/16 10:29:29;;;;;;;1.93;0.70;;;;;;;10.84;62.94;97842.75;6221955;28;20356;-52
2023/11/16 10:32:33;;;;;;;0.70;0.60;;;;;;;10.84;62.53;97834.75;6221155;28;20930;-51
2023/11/16 10:35:38;;;;;;;3.60;0.83;;;;;;;10.79;64.73;97834.66;6221592;28;20224;-52
2023/11/16 10:38:45;;;;;;;2.00;0.50;;;;;;;10.59;66.56;97801.25;6218953;28;20219;-53
2023/11/16 10:41:48;;;;;;;2.43;0.70;;;;;;;10.68;67.61;97816.84;6221025;28;20208;-50
2023/11/16 10:44:53;;;;;;;1.27;0.50;;;;;;;10.65;68.77;97809.34;6221712;28;20287;-53
2023/11/16 10:47:56;;;;;;;1.80;0.73;;;;;;;10.66;70.12;97795.78;6219427;28;20303;-54
2023/11/16 10:51:00;;;;;;;1.00;0.60;;;;;;;10.73;69.79;97783.09;6221630;28;20193;-52
2023/11/16 10:54:04;;;;;;;1.63;0.60;;;;;;;10.86;66.72;97782.00;6226685;28;20203;-51
2023/11/16 10:57:06;;;;;;;1.63;0.50;;;;;;;11.16;67.81;97765.69;6220590;28;20199;-48
2023/11/16 11:00:16;;;;;;;1.43;0.60;;;;;;;11.41;60.74;97756.47;6220030;28;20199;-50
2023/11/16 11:03:20;;;;;;;1.90;0.63;;;;;;;11.56;58.95;97748.66;6220124;28;20200;-53
2023/11/16 11:06:23;;;;;;;1.60;0.60;;;;;;;11.68;59.29;97745.91;6221536;28;20637;-52
2023/11/16 11:09:42;;;;;;;1.47;0.50;;;;;;;11.90;60.25;97746.72;6220862;28;20193;-49
2023/11/16 11:12:47;;;;;;;1.37;0.70;;;;;;;11.85;59.99;97715.44;6216958;28;20205;-53
2023/11/16 11:15:49;;;;;;;4.20;0.63;;;;;;;12.02;58.24;97734.09;6219736;28;20250;-51
2023/11/16 11:18:54;;;;;;;0.90;0.40;;;;;;;11.98;56.48;97734.81;6220868;28;20193;-47
2023/11/16 11:22:00;;;;;;;1.00;0.50;;;;;;;11.72;56.21;97701.63;6220948;28;20213;-52
2023/11/16 11:25:06;;;;;;;3.37;0.60;;;;;;;11.82;55.56;97731.13;6222894;28;20195;-47
2023/11/16 11:28:14;;;;;;;1.33;0.50;;;;;;;11.81;54.08;97729.50;6212110;28;20915;-53
2023/11/16 11:31:17;;;;;;;2.30;0.67;;;;;;;11.81;53.12;97724.97;6219498;28;20244;-51
2023/11/16 11:34:29;;;;;;;2.17;0.57;;;;;;;12.08;53.39;97717.06;6220294;28;20181;-51
2023/11/16 11:37:38;;;;;;;0.37;0.30;;;;;;;12.28;50.44;97710.31;6219433;28;20764;-53
2023/11/16 11:40:40;;;;;;;1.40;0.40;;;;;;;12.30;51.29;97711.66;6218317;28;20775;-53
2023/11/16 11:43:42;;;;;;;1.03;0.50;;;;;;;12.31;50.85;97701.78;6220570;28;20205;-49
2023/11/16 11:46:45;;;;;;;1.03;0.40;;;;;;;12.26;50.39;97693.72;6220045;28;20200;-54
2023/11/16 11:49:48;;;;;;;1.13;0.50;;;;;;;12.21;49.92;97688.31;6220165;28;20272;-51
2023/11/16 11:52:52;;;;;;;0.70;0.50;;;;;;;12.25;50.37;97679.56;6219553;28;20189;-53
2023/11/16 11:55:56;;;;;;;1.97;0.60;;;;;;;12.30;50.09;97686.81;6218514;28;20596;-53
2023/11/16 11:58:59;;;;;;;0.47;0.40;;;;;;;12.19;50.61;97680.56;6222817;28;20204;-53
2023/11/16 12:02:19;;;;;;;1.53;0.70;;;;;;;12.05;51.28;97655.31;6219304;28;20246;-51
2023/11/16 12:05:21;;;;;;;2.00;0.53;;;;;;;12.05;51.46;97661.47;6218917;28;20201;-51
2023/11/16 12:08:46;;;;;;;1.20;0.70;;;;;;;12.06;51.73;97649.72;6219562;28;20560;-50
2023/11/16 12:11:48;;;;;;;1.67;0.50;;;;;;;12.05;53.14;97642.78;6217073;28;20189;-50
2023/11/16 12:14:51;;;;;;;3.17;0.87;;;;;;;12.06;53.36;97627.56;6219205;28;20195;-51
2023/11/16 12:17:58;;;;;;;0.60;0.53;;;;;;;12.17;53.57;97631.13;6219352;28;20208;-53
2023/11/16 12:21:00;;;;;;;1.30;0.60;;;;;;;12.04;52.56;97619.81;6218264;28;20232;-51
2023/11/16 12:24:08;;;;;;;3.53;1.00;;;;;;;12.10;52.16;97610.78;6217020;28;20676;-51
2023/11/16 12:27:15;;;;;;;1.43;0.80;;;;;;;11.85;54.22;97611.34;6217901;28;20456;-53
2023/11/16 12:30:18;;;;;;;1.70;0.60;;;;;;;11.87;53.97;97590.56;6219153;28;20585;-50
2023/11/16 12:33:22;;;;;;;1.07;0.60;;;;;;;11.91;52.91;97571.34;6218761;28;20260;-53
2023/11/16 12:36:31;;;;;;;1.60;0.80;;;;;;;11.59;53.80;97561.41;6217819;28;20204;-55
2023/11/16 12:39:33;;;;;;;2.87;0.40;;;;;;;11.46;57.20;97580.47;6216851;28;20769;-50
2023/11/16 12:42:37;;;;;;;1.97;0.83;;;;;;;11.34;58.60;97570.75;6218668;28;20196;-51
2023/11/16 12:45:41;;;;;;;1.63;1.27;;;;;;;11.26;56.73;97571.19;6233900;28;20303;-51
2023/11/16 12:48:44;;;;;;;2.30;1.00;;;;;;;11.32;57.13;97564.03;6217359;28;20271;-53
2023/11/16 12:51:46;;;;;;;1.03;0.73;;;;;;;11.14;59.74;97537.72;6218094;28;20201;-52
2023/11/16 12:54:51;;;;;;;3.23;1.17;;;;;;;11.10;59.89;97526.72;6220058;28;20295;-50
2023/11/16 12:57:54;;;;;;;1.33;0.70;;;;;;;11.17;56.82;97530.00;6218511;28;20721;-51
2023/11/16 13:00:56;;;;;;;1.50;0.60;;;;;;;11.31;55.39;97527.75;6217808;28;20243;-52
2023/11/16 13:03:59;;;;;;;1.00;0.70;;;;;;;11.30;57.54;97515.50;6217503;28;20201;-51
2023/11/16 13:07:01;;;;;;;1.37;0.60;;;;;;;11.26;59.46;97520.50;6218589;28;20652;-49
2023/11/16 13:10:04;;;;;;;2.47;0.70;;;;;;;11.27;60.34;97510.66;6218222;28;20193;-52
2023/11/16 13:13:06;;;;;;;0.60;0.50;;;;;;;11.22;60.63;97505.25;6216100;28;20747;-52
2023/11/16 13:16:08;;;;;;;1.67;0.67;;;;;;;11.23;60.28;97493.53;6217193;28;20204;-54
2023/11/16 13:19:11;;;;;;;1.90;0.60;;;;;;;11.31;57.56;97485.09;6217524;28;20200;-53
2023/11/16 13:22:14;;;;;;;1.00;0.57;;;;;;;11.40;57.37;97490.78;6216305;28;20232;-53
2023/11/16 13:25:16;;;;;;;2.90;0.50;;;;;;;11.44;58.01;97471.38;6217849;28;20201;-50
2023/11/16 13:28:19;;;;;;;0.73;0.40;;;;;;;11.46;59.79;97471.91;6218246;28;20195;-52
2023/11/16 13:31:22;;;;;;;2.10;0.53;;;;;;;11.46;60.73;97465.78;6216776;28;20228;-50
2023/11/16 13:34:24;;;;;;;1.30;0.60;;;;;;;11.45;62.56;97453.50;6218526;28;20291;-53
2023/11/16 13:37:26;;;;;;;1.73;0.60;;;;;;;11.41;63.47;97447.06;6217519;28;20199;-52
2023/11/16 13:40:29;;;;;;;3.90;0.80;;;;;;;11.39;62.89;97431.31;6217438;28;20192;-52
2023/11/16 13:43:32;;;;;;;1.13;0.63;;;;;;;11.43;62.72;97427.09;6216619;28;20653;-52
2023/11/16 13:46:36;;;;;;;1.03;0.43;;;;;;;11.43;63.08;97419.09;6217538;28;20204;-52
2023/11/16 13:49:38;;;;;;;1.00;0.47;;;;;;;11.43;59.98;97404.91;6218408;28;20331;-50
2023/11/16 13:52:44;;;;;;;0.90;0.60;;;;;;;11.42;60.67;97404.13;6217916;28;20291;-52
2023/11/16 13:55:50;;;;;;;0.93;0.60;;;;;;;11.36;60.43;97389.94;6217639;28;20669;-50
2023/11/16 13:58:52;;;;;;;0.90;0.40;;;;;;;11.34;61.38;97389.41;6217984;28;20695;-49
2023/11/16 14:01:57;;;;;;;0.90;0.63;;;;;;;11.27;60.53;97378.13;6217293;28;20255;-53
2023/11/16 14:05:01;;;;;;;0.63;0.40;;;;;;;11.24;59.04;97372.50;6217894;28;20200;-51
2023/11/16 14:08:04;;;;;;;0.57;0.40;;;;;;;11.17;59.61;97363.91;6216706;28;20224;-53
2023/11/16 14:11:09;;;;;;;1.53;0.50;;;;;;;11.04;59.98;97363.25;6217074;28;20319;-54
2023/11/16 14:14:14;;;;;;;0.53;0.40;;;;;;;11.03;61.43;97358.16;6215820;28;20189;-50
2023/11/16 14:17:17;;;;;;;0.70;0.30;;;;;;;10.97;62.70;97352.00;6216326;28;20741;-54
2023/11/16 14:20:19;;;;;;;0.90;0.50;;;;;;;10.86;65.58;97336.97;6216865;28;20559;-51
2023/11/16 14:23:23;;;;;;;0.90;0.43;;;;;;;10.81;66.71;97339.56;6215063;28;20212;-53
2023/11/16 14:26:26;;;;;;;0.53;0.50;;;;;;;10.77;68.00;97341.13;6217192;28;20657;-50
2023/11/16 14:29:28;;;;;;;0.50;0.40;;;;;;;10.72;68.93;97335.75;6216010;28;20216;-50
2023/11/16 14:32:30;;;;;;;3.77;0.60;;;;;;;10.66;69.90;97318.13;6215877;28;20775;-51